createdAt,value
2023-01-27T02:16:08.467Z,68.19
2023-01-27T02:17:14.841Z,68.40
2023-01-27T02:18:18.773Z,66.07
2023-01-27T02:19:41.786Z,59.00
2023-01-27T02:20:48.279Z,64.73
2023-01-27T02:21:55.626Z,62.94
2023-01-27T02:23:17.433Z,64.37
2023-01-27T02:24:24.091Z,64.33
2023-01-27T02:25:37.058Z,59.00
2023-01-27T02:26:43.329Z,64.07
2023-01-27T02:27:48.464Z,61.20
2023-01-27T02:29:04.141Z,62.38
2023-01-27T02:30:08.867Z,63.87
2023-01-27T02:31:12.931Z,58.27
2023-01-27T02:32:26.034Z,64.75
2023-01-27T02:33:29.961Z,59.44
2023-01-27T02:34:36.864Z,61.13
2023-01-27T02:35:46.251Z,58.81
2023-01-27T02:36:53.211Z,60.27
2023-01-27T02:37:57.881Z,62.25
2023-01-27T02:39:05.900Z,59.00
2023-01-27T02:40:12.879Z,58.38
2023-01-27T02:46:35.666Z,54.53
2023-01-27T02:47:39.641Z,56.73
2023-01-27T02:48:43.902Z,57.88
2023-01-27T02:49:47.840Z,56.67
2023-01-27T02:50:51.977Z,53.25
2023-01-27T02:51:55.980Z,53.69
2023-01-27T02:52:59.936Z,56.88
2023-01-27T02:54:04.066Z,55.69
2023-01-27T02:55:08.687Z,50.94
2023-01-27T02:56:12.877Z,55.56
2023-01-27T02:57:16.956Z,56.88
2023-01-27T02:58:20.980Z,52.75
2023-01-27T02:59:24.956Z,56.33
2023-01-27T03:00:29.001Z,55.00
2023-01-27T03:01:33.120Z,54.67
2023-01-27T03:02:37.086Z,55.73
2023-01-27T03:03:41.234Z,58.25
2023-01-27T03:04:45.220Z,55.69
2023-01-27T03:05:49.170Z,55.88
2023-01-27T03:06:53.217Z,55.87
2023-01-27T03:07:57.283Z,53.38
2023-01-27T03:09:02.844Z,53.75
2023-01-27T03:10:07.353Z,55.00
2023-01-27T03:11:13.259Z,50.12
2023-01-27T03:12:17.309Z,53.63
2023-01-27T03:13:24.732Z,51.06
2023-01-27T03:14:31.857Z,53.87
2023-01-27T03:15:41.439Z,55.00
2023-01-27T03:16:42.185Z,54.33
2023-01-27T03:17:46.232Z,54.56
2023-01-27T03:18:51.548Z,56.60
2023-01-27T03:19:55.591Z,47.44
2023-01-27T03:21:04.688Z,51.47
2023-01-27T03:22:08.634Z,52.25
2023-01-27T03:23:13.692Z,54.81
2023-01-27T03:24:20.590Z,56.50
2023-01-27T03:25:28.624Z,50.27
2023-01-27T03:26:32.575Z,53.50
2023-01-27T03:27:38.142Z,56.06
2023-01-27T03:28:44.079Z,51.13
2023-01-27T03:29:54.566Z,53.73
2023-01-27T03:31:19.989Z,51.75
2023-01-27T03:32:22.005Z,57.00
2023-01-27T03:33:33.875Z,55.00
2023-01-27T03:34:36.416Z,52.25
2023-01-27T03:36:01.131Z,52.33
2023-01-27T03:37:07.177Z,59.47
2023-01-27T03:38:16.670Z,60.93
2023-01-27T03:39:25.521Z,57.00
2023-01-27T03:40:28.359Z,58.53
2023-01-27T03:41:32.438Z,59.40
2023-01-27T03:42:36.495Z,61.69
2023-01-27T03:43:40.540Z,60.33
2023-01-27T03:44:44.522Z,56.88
2023-01-27T03:45:53.440Z,55.81
2023-01-27T03:46:58.420Z,59.19
2023-01-27T03:48:04.021Z,55.06
2023-01-27T03:49:08.233Z,51.69
2023-01-27T03:50:14.053Z,57.44
2023-01-27T03:51:19.375Z,52.47
2023-01-27T03:52:24.938Z,57.20
2023-01-27T03:53:30.603Z,52.31
2023-01-27T03:54:34.572Z,57.07
2023-01-27T03:55:40.534Z,58.40
2023-01-27T03:56:46.129Z,56.75
2023-01-27T03:57:49.979Z,57.00
2023-01-27T03:58:53.832Z,53.63
2023-01-27T03:59:57.777Z,55.56
2023-01-27T04:01:04.748Z,48.31
2023-01-27T04:02:10.033Z,50.75
2023-01-27T04:03:14.049Z,53.06
2023-01-27T04:04:17.895Z,56.06
2023-01-27T04:05:21.828Z,52.67
2023-01-27T04:06:31.085Z,50.33
2023-01-27T04:07:38.414Z,59.40
2023-01-27T04:08:45.368Z,57.19
2023-01-27T04:09:49.327Z,53.67
2023-01-27T04:10:57.530Z,58.53
2023-01-27T04:12:04.119Z,58.07
2023-01-27T04:13:07.975Z,50.50
2023-01-27T04:14:13.348Z,55.67
2023-01-27T04:15:17.394Z,52.19
2023-01-27T04:16:21.380Z,57.81
2023-01-27T04:17:25.311Z,58.67
2023-01-27T04:18:29.157Z,59.00
2023-01-27T04:19:33.953Z,60.00
2023-01-27T04:20:37.964Z,54.63
2023-01-27T04:21:42.306Z,58.87
2023-01-27T04:22:47.463Z,60.94
2023-01-27T04:23:51.923Z,54.38
2023-01-27T04:24:55.877Z,59.75
2023-01-27T04:25:59.874Z,62.81
2023-01-27T04:27:06.841Z,58.93
2023-01-27T04:28:12.378Z,56.60
2023-01-27T04:29:17.895Z,57.53
2023-01-27T04:30:23.434Z,56.56
2023-01-27T04:31:29.173Z,56.87
2023-01-27T04:32:33.244Z,61.13
2023-01-27T04:33:38.916Z,59.13
2023-01-27T04:34:43.270Z,60.19
2023-01-27T04:35:48.513Z,57.07
2023-01-27T04:36:52.516Z,58.94
2023-01-27T04:37:56.428Z,62.62
2023-01-27T04:39:00.419Z,59.07
2023-01-27T04:40:04.565Z,59.38
2023-01-27T04:41:10.255Z,62.94
2023-01-27T04:42:15.757Z,60.00
2023-01-27T04:43:21.124Z,53.20
2023-01-27T04:44:25.552Z,56.81
2023-01-27T04:45:31.319Z,54.93
2023-01-27T04:46:35.924Z,60.50
2023-01-27T04:47:39.874Z,56.47
2023-01-27T04:48:43.835Z,56.81
2023-01-27T04:49:47.780Z,65.27
2023-01-27T04:50:51.796Z,56.00
2023-01-27T04:51:56.247Z,61.67
2023-01-27T04:53:01.719Z,61.88
2023-01-27T04:54:05.856Z,61.07
2023-01-27T04:55:13.150Z,62.47
2023-01-27T04:56:31.987Z,60.63
2023-01-27T04:57:35.947Z,60.25
2023-01-27T04:58:39.932Z,58.31
2023-01-27T04:59:47.650Z,61.33
2023-01-27T05:00:49.587Z,60.63
2023-01-27T05:01:53.583Z,57.94
2023-01-27T05:02:57.689Z,57.44
2023-01-27T05:04:01.711Z,58.00
2023-01-27T05:05:08.027Z,59.67
2023-01-27T05:06:12.810Z,55.06
2023-01-27T05:07:18.410Z,59.31
2023-01-27T05:08:22.467Z,58.13
2023-01-27T05:09:26.519Z,61.25
2023-01-27T05:10:32.503Z,61.50
2023-01-27T05:11:38.067Z,59.31
2023-01-27T05:12:43.639Z,59.50
2023-01-27T05:13:48.356Z,53.38
2023-01-27T05:14:52.396Z,58.56
2023-01-27T05:16:22.135Z,57.13
2023-01-27T05:17:26.524Z,59.07
2023-01-27T05:18:30.467Z,61.40
2023-01-27T05:19:34.433Z,61.00
2023-01-27T05:20:38.473Z,60.63
2023-01-27T05:21:42.440Z,62.47
2023-01-27T05:22:46.367Z,63.40
2023-01-27T05:23:52.056Z,58.44
2023-01-27T05:24:57.668Z,60.69
2023-01-27T05:26:22.441Z,57.56
2023-01-27T05:27:28.015Z,62.60
2023-01-27T05:28:32.005Z,61.94
2023-01-27T05:29:37.063Z,61.60
2023-01-27T05:30:41.258Z,60.81
2023-01-27T05:31:45.678Z,65.44
2023-01-27T05:32:51.687Z,65.94
2023-01-27T05:33:59.192Z,62.07
2023-01-27T05:35:07.879Z,61.40
2023-01-27T05:36:15.919Z,61.37
2023-01-27T05:37:21.652Z,58.31
2023-01-27T05:38:25.968Z,61.25
2023-01-27T05:39:30.113Z,60.53
2023-01-27T05:40:34.172Z,60.31
2023-01-27T05:41:38.321Z,65.87
2023-01-27T05:42:43.811Z,61.63
2023-01-27T05:43:51.640Z,59.69
2023-01-27T05:44:57.215Z,59.69
2023-01-27T05:46:07.006Z,64.13
2023-01-27T05:47:10.997Z,63.50
2023-01-27T05:48:14.943Z,62.80
2023-01-27T05:49:20.358Z,60.47
2023-01-27T05:50:24.429Z,63.19
2023-01-27T05:51:30.974Z,63.75
2023-01-27T05:52:34.931Z,62.62
2023-01-27T05:53:40.517Z,64.07
2023-01-27T05:54:46.116Z,62.19
2023-01-27T05:55:50.618Z,63.94
2023-01-27T05:56:56.231Z,59.88
2023-01-27T05:58:01.941Z,60.38
2023-01-27T05:59:05.918Z,52.75
2023-01-27T06:00:11.008Z,59.67
2023-01-27T06:01:24.166Z,57.75
2023-01-27T06:02:28.260Z,64.00
2023-01-27T06:03:32.221Z,59.93
2023-01-27T06:04:36.249Z,56.81
2023-01-27T06:05:41.898Z,60.80
2023-01-27T06:06:46.170Z,59.20
2023-01-27T06:07:50.036Z,56.69
2023-01-27T06:08:54.340Z,56.40
2023-01-27T06:09:58.350Z,62.87
2023-01-27T06:11:03.020Z,59.60
2023-01-27T06:12:07.350Z,56.50
2023-01-27T06:13:11.753Z,62.60
2023-01-27T06:14:17.291Z,54.80
2023-01-27T06:15:21.352Z,59.73
2023-01-27T06:16:27.140Z,55.67
2023-01-27T06:17:31.103Z,58.75
2023-01-27T06:18:37.915Z,53.60
2023-01-27T06:19:43.817Z,52.13
2023-01-27T06:20:51.551Z,55.93
2023-01-27T06:21:57.166Z,60.40
2023-01-27T06:23:13.651Z,58.44
2023-01-27T12:41:42.106Z,45.88
2023-01-27T18:08:25.461Z,51.37
2023-01-27T18:09:29.682Z,48.75
2023-01-27T18:10:39.431Z,48.53
2023-01-27T18:11:55.285Z,52.75
2023-01-27T18:13:14.393Z,49.33
2023-01-27T18:14:21.061Z,50.60
2023-01-27T18:15:39.804Z,49.27
2023-01-27T18:16:47.228Z,52.40
2023-01-27T18:18:02.265Z,50.12
2023-01-27T18:19:21.193Z,50.27
2023-01-27T18:20:36.473Z,48.44
2023-01-27T18:21:43.555Z,51.31
2023-01-27T18:22:48.867Z,53.67
2023-01-27T18:23:55.342Z,53.00
2023-01-27T18:25:04.068Z,53.53
2023-01-27T18:26:29.574Z,52.44
2023-01-27T18:27:36.880Z,52.94
2023-01-27T18:28:43.742Z,49.56
2023-01-27T18:29:50.981Z,54.67
2023-01-27T18:30:55.483Z,53.93
2023-01-27T18:32:11.405Z,52.13
2023-01-27T18:33:16.673Z,54.44
2023-01-27T18:34:27.060Z,54.20
2023-01-27T18:35:34.242Z,52.56
2023-01-27T18:36:40.666Z,51.13
2023-01-27T18:37:47.889Z,53.44
2023-01-27T18:38:52.550Z,53.27
2023-01-27T18:40:00.047Z,36.06
2023-01-27T18:41:12.520Z,51.50
2023-01-27T18:42:19.621Z,52.50
2023-01-27T18:43:23.963Z,55.44
2023-01-27T18:44:28.311Z,55.40
2023-01-27T18:45:32.484Z,56.33
2023-01-27T18:46:38.110Z,57.53
2023-01-27T18:47:42.447Z,56.13
2023-01-27T18:48:46.687Z,48.87
2023-01-27T18:50:08.557Z,53.53
2023-01-27T18:51:16.608Z,49.44
2023-01-27T18:52:22.307Z,51.44
2023-01-27T18:53:26.293Z,54.38
2023-01-27T18:54:30.432Z,54.69
2023-01-27T18:55:34.748Z,50.25
2023-01-27T18:56:38.849Z,56.06
2023-01-27T18:57:43.760Z,48.00
2023-01-27T18:58:47.934Z,50.40
2023-01-27T18:59:52.147Z,55.67
2023-01-27T19:00:58.767Z,54.81
2023-01-27T19:02:04.813Z,52.62
2023-01-27T19:03:15.022Z,51.80
2023-01-27T19:04:22.294Z,48.69
2023-01-27T19:05:32.311Z,51.33
2023-01-27T19:06:38.165Z,52.93
2023-01-27T19:07:42.231Z,55.06
2023-01-27T19:08:48.282Z,58.00
2023-01-27T19:09:52.450Z,53.87
2023-01-27T19:10:56.568Z,62.00
2023-01-27T19:12:04.435Z,60.80
2023-01-27T19:13:10.785Z,54.47
2023-01-27T19:14:14.961Z,63.81
2023-01-27T19:15:24.049Z,59.40
2023-01-27T19:16:28.229Z,65.73
2023-01-27T19:17:32.708Z,61.56
2023-01-27T19:18:39.257Z,61.13
2023-01-27T19:19:43.520Z,60.07
2023-01-27T19:20:47.676Z,59.25
2023-01-27T19:21:51.843Z,57.81
2023-01-27T19:23:01.763Z,59.63
2023-01-27T19:24:06.042Z,56.33
2023-01-27T19:25:10.609Z,60.88
2023-01-27T19:26:18.844Z,57.31
2023-01-27T19:27:25.496Z,56.00
2023-01-27T19:28:33.226Z,54.80
2023-01-27T19:29:37.281Z,54.56
2023-01-27T19:30:41.586Z,63.20
2023-01-27T19:31:45.757Z,53.20
2023-01-27T19:32:52.459Z,61.87
2023-01-27T19:33:57.799Z,57.81
2023-01-27T19:35:02.469Z,58.13
2023-01-27T19:36:27.170Z,62.69
2023-01-27T19:37:31.211Z,67.07
2023-01-27T19:38:35.223Z,66.13
2023-01-27T19:39:39.244Z,60.73
2023-01-27T19:40:43.429Z,59.33
2023-01-27T19:41:48.959Z,63.94
2023-01-27T19:42:53.053Z,62.40
2023-01-27T19:44:00.604Z,62.87
2023-01-27T19:45:04.473Z,57.53
2023-01-27T19:46:17.862Z,59.27
2023-01-27T19:47:21.691Z,56.31
2023-01-27T19:48:25.785Z,55.33
2023-01-27T19:49:31.415Z,56.81
2023-01-27T19:50:35.479Z,55.44
2023-01-27T19:51:39.393Z,56.33
2023-01-27T19:52:43.307Z,54.81
2023-01-27T19:53:47.650Z,57.06
2023-01-27T19:54:51.571Z,57.56
2023-01-27T19:55:58.295Z,55.73
2023-01-27T19:57:05.812Z,55.56
2023-01-27T19:58:28.669Z,59.20
2023-01-27T19:59:32.794Z,57.38
2023-01-27T20:00:37.783Z,61.60
2023-01-27T20:01:41.799Z,63.93
2023-01-27T20:02:45.648Z,65.19
2023-01-27T20:03:55.770Z,61.80
2023-01-27T20:05:01.440Z,52.00
2023-01-27T20:06:17.630Z,56.73
2023-01-27T20:07:21.619Z,60.06
2023-01-27T20:08:28.963Z,60.87
2023-01-27T20:09:33.114Z,57.93
2023-01-27T20:10:37.047Z,63.47
2023-01-27T20:11:43.232Z,62.47
2023-01-27T20:13:01.808Z,58.94
2023-01-27T20:14:19.620Z,60.56
2023-01-27T20:15:28.598Z,63.56
2023-01-27T20:16:33.208Z,63.19
2023-01-27T20:17:39.822Z,67.27
2023-01-27T20:18:44.435Z,63.47
2023-01-27T20:19:48.423Z,57.00
2023-01-27T20:20:52.430Z,61.44
2023-01-27T20:21:56.288Z,63.73
2023-01-27T20:23:00.312Z,63.60
2023-01-27T20:24:07.691Z,64.33
2023-01-27T20:25:17.255Z,61.50
2023-01-27T20:26:22.588Z,64.25
2023-01-27T20:27:27.701Z,61.25
2023-01-27T20:28:36.992Z,62.13
2023-01-27T20:29:41.097Z,57.80
2023-01-27T20:30:45.302Z,59.20
2023-01-27T20:31:49.602Z,58.75
2023-01-27T20:32:56.282Z,65.44
2023-01-27T20:34:02.139Z,62.87
2023-01-27T20:35:06.590Z,60.27
2023-01-27T20:36:13.622Z,62.44
2023-01-27T20:37:17.890Z,60.56
2023-01-27T20:38:22.094Z,61.88
2023-01-27T20:39:28.142Z,53.93
2023-01-27T20:40:34.460Z,62.88
2023-01-27T20:41:39.173Z,59.31
2023-01-27T20:42:43.523Z,60.25
2023-01-27T20:43:49.176Z,54.07
2023-01-27T20:44:54.887Z,64.37
2023-01-27T20:46:07.939Z,63.31
2023-01-27T20:47:17.185Z,60.87
2023-01-27T20:48:22.663Z,65.07
2023-01-27T20:49:26.983Z,61.06
2023-01-27T20:50:31.340Z,62.06
2023-01-27T20:51:41.380Z,59.87
2023-01-27T20:52:44.289Z,63.73
2023-01-27T20:53:48.340Z,62.75
2023-01-27T20:54:54.042Z,61.69
2023-01-27T20:55:59.357Z,58.19
2023-01-27T20:57:03.569Z,56.13
2023-01-27T20:58:07.913Z,52.81
2023-01-27T20:59:12.036Z,56.27
2023-01-27T21:00:20.824Z,55.94
2023-01-27T21:01:26.521Z,56.63
2023-01-27T21:02:30.780Z,53.56
2023-01-27T21:03:36.652Z,57.27
2023-01-27T21:04:42.315Z,56.47
2023-01-27T21:05:46.460Z,56.94
2023-01-27T21:06:50.601Z,63.25
2023-01-27T21:07:56.261Z,57.50
2023-01-27T21:09:02.269Z,60.53
2023-01-27T21:10:07.735Z,62.40
2023-01-27T21:11:11.907Z,59.80
2023-01-27T21:12:16.036Z,58.20
2023-01-27T21:13:20.569Z,58.07
2023-01-27T21:14:26.411Z,55.53
2023-01-27T21:15:32.051Z,63.13
2023-01-27T21:16:36.285Z,53.44
2023-01-27T21:17:41.911Z,61.27
2023-01-27T21:18:46.015Z,59.13
2023-01-27T21:19:50.181Z,57.06
2023-01-27T21:20:56.343Z,63.31
2023-01-27T21:22:02.040Z,65.37
2023-01-27T21:23:06.504Z,58.87
2023-01-27T21:24:10.814Z,59.44
2023-01-27T21:25:15.420Z,55.93
2023-01-27T21:26:19.934Z,60.12
2023-01-27T21:27:24.071Z,59.75
2023-01-27T21:28:29.778Z,63.31
2023-01-27T21:29:33.976Z,57.06
2023-01-27T21:30:38.099Z,64.94
2023-01-27T21:31:42.280Z,63.27
2023-01-27T21:32:46.369Z,63.13
2023-01-27T21:33:51.048Z,65.37
2023-01-27T21:34:55.364Z,62.62
2023-01-27T21:36:03.037Z,63.56
2023-01-27T21:37:12.726Z,59.00
2023-01-27T21:38:15.230Z,64.56
2023-01-27T21:39:19.423Z,62.13
2023-01-27T21:40:25.159Z,60.87
2023-01-27T21:41:31.029Z,55.73
2023-01-27T21:42:35.072Z,63.63
2023-01-27T21:43:39.073Z,62.33
2023-01-27T21:44:42.996Z,63.27
2023-01-27T21:45:46.936Z,66.13
2023-01-27T21:46:51.267Z,60.44
2023-01-27T21:47:55.218Z,61.60
2023-01-27T21:48:59.205Z,61.13
2023-01-27T21:50:03.321Z,64.25
2023-01-27T21:51:07.439Z,56.40
2023-01-27T21:52:11.455Z,57.38
2023-01-27T21:53:15.375Z,61.69
2023-01-27T21:54:21.129Z,58.53
2023-01-27T21:55:29.932Z,59.80
2023-01-27T21:56:33.927Z,56.81
2023-01-27T21:57:39.555Z,59.00
2023-01-27T21:58:43.503Z,63.63
2023-01-27T21:59:47.430Z,63.38
2023-01-27T22:00:51.388Z,60.40
